Etusivu
METAR-TAF:

METAR-TAF

Lentoasemat :

Princeton, Brittiläinen Kolumbia, Kanada

Leveyspiiri: 49-28N, Pituuspiiri: 120-31W, korkeus merenpinnasta: 700 m

Tämänhetkinen sää

Tämä raportti tehtiin 19 minuuttia sitten, kello 00.00 UTC
Tuuli 4 kn lännestä, vaihdellen lännen/lounaan ja koillisen välillä
Lämpötila 17°C
Kosteus 17%
Ilmanpaine 1016 hPa
Näkyvyys: 40.2 km
Muutamia pilviä 12000 ft:n korkeudessa
Pilvistä 18000 ft:n korkeudessa

METAR: CYDC 260000Z 28004KT 240V040 25SM FEW120 OVC180 17/M08 A3001 RMK AC2AS6 SLP174 DENSITY ALT 3000FT

Aika: 17:19 (00:19 UTC)


TAF: puuttuu

Säähavainnot ja -ennusteet yli 4000 lentoasemalta (METAR- ja TAF-raportit).

Käytössä olevat sääasemat on merkitty karttaan keltaisilla ja punaisilla pisteillä.

Aseta hiiri pisteen päälle nähdäksesi sääaseman nimen.

Klikkaa sitten nähdäksesi säähavainnot ja -ennusteet.

Kartan vaihtaminen: klikkaa mustalla rastilla varustettuja vihreitä pisteitä, niin voit zoomata sisään; viivalla varustettua vihreää pistettä, niin voit zoomata ulos tai vihreitä nuolia, niin pääset viereisille kartoille.


METAR-TAF: